createdAt,value
2018-01-24T00:01:16.558Z,100832.11
2018-01-24T00:03:44.759Z,100831.25
2018-01-24T00:06:12.870Z,100833.45
2018-01-24T00:08:40.946Z,100836.07
2018-01-24T00:11:13.019Z,100837.39
2018-01-24T00:13:40.835Z,100840.84
2018-01-24T00:16:08.849Z,100844.77
2018-01-24T00:18:36.613Z,100850.87
2018-01-24T00:21:12.676Z,100851.31
2018-01-24T00:23:40.497Z,100854.81
2018-01-24T00:26:08.212Z,100856.12
2018-01-24T00:28:36.028Z,100857.00
2018-01-24T00:31:03.844Z,100860.05
2018-01-24T00:33:31.489Z,100872.69
2018-01-24T00:36:03.859Z,100871.81
2018-01-24T00:38:32.648Z,100872.25
2018-01-24T00:41:02.555Z,100870.95
2018-01-24T00:43:30.422Z,100873.14
2018-01-24T00:46:02.608Z,100873.16
2018-01-24T00:48:30.554Z,100873.56
2018-01-24T00:50:58.591Z,100881.42
2018-01-24T00:53:26.557Z,100880.13
2018-01-24T00:55:56.237Z,100878.40
2018-01-24T00:58:26.224Z,100887.11
2018-01-24T01:00:54.379Z,100892.75
2018-01-24T01:03:22.223Z,100885.78
2018-01-24T01:05:50.250Z,100891.88
2018-01-24T01:08:18.802Z,100894.93
2018-01-24T01:10:46.894Z,100898.41
2018-01-24T01:13:14.832Z,100902.34
2018-01-24T01:15:42.575Z,100904.11
2018-01-24T01:18:10.415Z,100907.14
2018-01-24T01:20:38.228Z,100909.34
2018-01-24T01:23:06.432Z,100902.38
2018-01-24T01:25:34.387Z,100910.20
2018-01-24T01:28:02.451Z,100907.16
2018-01-24T01:30:32.536Z,100915.84
2018-01-24T01:33:00.390Z,100915.88
2018-01-24T01:35:28.649Z,100918.48
2018-01-24T01:37:56.461Z,100921.98
2018-01-24T01:40:26.629Z,100920.22
2018-01-24T01:42:58.736Z,100921.09
2018-01-24T01:45:26.557Z,100925.88
2018-01-24T01:47:54.400Z,100924.58
2018-01-24T01:50:22.336Z,100925.89
2018-01-24T01:52:50.205Z,100924.59
2018-01-24T01:55:18.169Z,100928.52
2018-01-24T01:57:46.013Z,100928.95
2018-01-24T02:00:14.127Z,100931.58
2018-01-24T02:02:42.336Z,100934.62
2018-01-24T02:05:10.417Z,100938.98
2018-01-24T02:07:38.349Z,100938.98
2018-01-24T02:10:06.314Z,100938.55
2018-01-24T02:12:34.130Z,100934.61
2018-01-24T02:15:01.792Z,100946.36
2018-01-24T02:17:29.485Z,100946.80
2018-01-24T02:19:57.350Z,100946.38
2018-01-24T02:22:25.176Z,100950.30
2018-01-24T02:24:53.344Z,100951.61
2018-01-24T02:27:21.400Z,100955.97
2018-01-24T02:29:53.624Z,100957.72
2018-01-24T02:32:21.406Z,100955.52
2018-01-24T02:34:49.218Z,100954.66
2018-01-24T02:37:19.235Z,100959.45
2018-01-24T02:39:47.376Z,100962.06
2018-01-24T02:42:17.327Z,100962.09
2018-01-24T02:44:45.306Z,100963.38
2018-01-24T02:47:13.646Z,100959.91
2018-01-24T02:49:41.532Z,100969.06
2018-01-24T02:52:11.758Z,100968.61
2018-01-24T02:54:41.677Z,100965.13
2018-01-24T02:57:09.532Z,100962.08
2018-01-24T02:59:37.698Z,100965.99
2018-01-24T03:02:05.765Z,100966.87
2018-01-24T03:04:33.831Z,100972.52
2018-01-24T03:07:01.873Z,100971.23
2018-01-24T03:09:29.864Z,100973.41
2018-01-24T03:11:59.776Z,100977.77
2018-01-24T03:14:28.442Z,100976.90
2018-01-24T03:16:56.258Z,100970.36
2018-01-24T03:19:26.394Z,100975.15
2018-01-24T03:21:54.339Z,100972.97
2018-01-24T03:24:22.403Z,100979.93
2018-01-24T03:26:50.285Z,100976.90
2018-01-24T03:29:20.244Z,100986.03
2018-01-24T03:31:48.151Z,100988.22
2018-01-24T03:34:18.391Z,100992.15
2018-01-24T03:36:46.467Z,100994.76
2018-01-24T03:39:16.492Z,100999.97
2018-01-24T03:41:44.363Z,101007.83
2018-01-24T03:44:12.481Z,101001.28
2018-01-24T03:46:42.628Z,101009.98
2018-01-24T03:49:10.519Z,101017.82
2018-01-24T03:51:38.182Z,101022.58
2018-01-24T03:54:08.300Z,101026.06
2018-01-24T03:56:36.205Z,101020.85
2018-01-24T03:59:04.205Z,101016.52
2018-01-24T04:01:34.358Z,101020.42
2018-01-24T04:04:06.418Z,101020.86
2018-01-24T04:06:34.242Z,101020.44
2018-01-24T04:09:04.498Z,101019.55
2018-01-24T04:11:32.647Z,101023.89
2018-01-24T04:14:00.689Z,101026.95
2018-01-24T04:16:28.624Z,101028.27
2018-01-24T04:18:56.569Z,101039.59
2018-01-24T04:21:24.545Z,101038.71
2018-01-24T04:23:52.835Z,101043.95
2018-01-24T04:26:20.691Z,101045.69
2018-01-24T04:28:48.733Z,101044.82
2018-01-24T04:31:16.733Z,101053.53
2018-01-24T04:33:44.598Z,101053.50
2018-01-24T04:36:14.718Z,101053.95
2018-01-24T04:38:44.644Z,101058.30
2018-01-24T04:41:12.535Z,101061.78
2018-01-24T04:43:40.228Z,101070.48
2018-01-24T04:46:08.118Z,101076.16
2018-01-24T04:48:36.191Z,101083.97
2018-01-24T04:51:04.221Z,101090.93
2018-01-24T04:53:32.312Z,101086.15
2018-01-24T04:56:00.278Z,101093.55
2018-01-24T04:58:30.126Z,101094.86
2018-01-24T05:00:58.035Z,101095.73
2018-01-24T05:03:30.000Z,101099.22
2018-01-24T05:05:58.036Z,101109.66
2018-01-24T05:08:25.792Z,101106.20
2018-01-24T05:10:53.621Z,101111.85
2018-01-24T05:13:21.626Z,101115.78
2018-01-24T05:15:49.708Z,101117.95
2018-01-24T05:18:17.602Z,101123.61
2018-01-24T05:20:49.108Z,101127.96
2018-01-24T05:23:17.172Z,101134.48
2018-01-24T05:25:45.214Z,101142.76
2018-01-24T05:28:13.316Z,101144.06
2018-01-24T05:30:42.130Z,101145.36
2018-01-24T05:33:10.196Z,101147.11
2018-01-24T05:35:38.001Z,101149.70
2018-01-24T05:38:05.841Z,101148.42
2018-01-24T05:40:34.110Z,101151.02
2018-01-24T05:43:03.806Z,101157.55
2018-01-24T05:45:31.789Z,101163.64
2018-01-24T05:47:59.655Z,101164.93
2018-01-24T05:50:27.634Z,101160.16
2018-01-24T05:52:59.689Z,101165.80
2018-01-24T05:55:27.371Z,101171.84
2018-01-24T05:57:55.517Z,101178.38
2018-01-24T06:00:23.592Z,101179.69
2018-01-24T06:02:51.353Z,101180.99
2018-01-24T06:05:19.167Z,101185.80
2018-01-24T06:07:46.894Z,101191.47
2018-01-24T06:10:14.594Z,101184.97
2018-01-24T06:12:42.718Z,101194.09
2018-01-24T06:15:10.794Z,101201.52
2018-01-24T06:17:38.742Z,101205.45
2018-01-24T06:20:06.812Z,101208.02
2018-01-24T06:22:34.897Z,101213.23
2018-01-24T06:25:02.962Z,101220.22
2018-01-24T06:27:30.892Z,101218.91
2018-01-24T06:29:58.921Z,101226.75
2018-01-24T06:32:26.735Z,101232.39
2018-01-24T06:34:54.448Z,101231.12
2018-01-24T06:37:22.389Z,101233.73
2018-01-24T06:39:50.283Z,101239.39
2018-01-24T06:42:19.055Z,101238.51
2018-01-24T06:44:50.721Z,101245.05
2018-01-24T06:47:18.674Z,101248.08
2018-01-24T06:49:46.328Z,101248.51
2018-01-24T06:52:16.483Z,101248.52
2018-01-24T06:54:45.524Z,101258.95
2018-01-24T06:57:13.338Z,101264.20
2018-01-24T06:59:41.300Z,101271.17
2018-01-24T07:02:09.161Z,101275.07
2018-01-24T07:04:36.829Z,101277.27
2018-01-24T07:07:07.108Z,101275.50
2018-01-24T07:09:35.942Z,101278.97
2018-01-24T07:12:15.791Z,101284.66
2018-01-24T07:14:45.600Z,101286.84
2018-01-24T07:17:13.409Z,101283.80
2018-01-24T07:19:41.303Z,101282.03
2018-01-24T07:22:09.123Z,101287.70
2018-01-24T07:24:37.994Z,101287.23
2018-01-24T07:27:06.080Z,101283.32
2018-01-24T07:29:33.834Z,101283.75
2018-01-24T07:32:01.780Z,101283.70
2018-01-24T07:34:29.672Z,101288.45
2018-01-24T07:37:02.054Z,101284.05
2018-01-24T07:39:29.826Z,101276.15
2018-01-24T07:41:57.768Z,101288.32
2018-01-24T07:44:25.605Z,101287.39
2018-01-24T07:46:53.473Z,101285.63
2018-01-24T07:49:21.358Z,101284.75
2018-01-24T07:51:49.402Z,101293.45
2018-01-24T07:54:19.460Z,101294.70
2018-01-24T07:56:47.527Z,101295.06
2018-01-24T07:59:17.459Z,101291.47
2018-01-24T08:01:45.247Z,101297.47
2018-01-24T08:04:15.133Z,101302.64
2018-01-24T08:06:42.933Z,101299.92
2018-01-24T08:09:12.987Z,101302.92
2018-01-24T08:11:40.933Z,101303.70
2018-01-24T08:14:08.796Z,101298.02
2018-01-24T08:16:36.784Z,101303.66
2018-01-24T08:19:04.602Z,101302.83
2018-01-24T08:21:32.718Z,101305.06
2018-01-24T08:24:00.602Z,101293.73
2018-01-24T08:26:28.481Z,101302.50
2018-01-24T08:28:56.462Z,101306.92
2018-01-24T08:31:26.420Z,101303.95
2018-01-24T08:33:54.243Z,101314.89
2018-01-24T08:36:21.922Z,101319.30
2018-01-24T08:38:49.672Z,101317.61
2018-01-24T08:41:17.741Z,101326.83
2018-01-24T08:43:45.659Z,101334.75
2018-01-24T08:46:14.800Z,101332.94
2018-01-24T08:48:43.498Z,101345.63
2018-01-24T08:51:15.427Z,101339.58
2018-01-24T08:53:43.317Z,101337.43
2018-01-24T08:56:13.548Z,101338.30
2018-01-24T08:58:41.617Z,101333.52
2018-01-24T09:01:09.550Z,101338.23
2018-01-24T09:03:37.604Z,101338.27
2018-01-24T09:06:06.457Z,101335.68
2018-01-24T09:08:34.435Z,101335.29
2018-01-24T09:11:02.460Z,101336.60
2018-01-24T09:13:30.366Z,101335.73
2018-01-24T09:15:58.157Z,101337.50
2018-01-24T09:18:26.189Z,101341.02
2018-01-24T09:20:57.148Z,101347.57
2018-01-24T09:23:29.392Z,101353.67
2018-01-24T09:25:57.296Z,101352.79
2018-01-24T09:28:25.921Z,101363.73
2018-01-24T09:30:53.635Z,101359.34
2018-01-24T09:33:21.346Z,101364.99
2018-01-24T09:35:49.021Z,101354.95
2018-01-24T09:38:16.651Z,101348.42
2018-01-24T09:40:46.609Z,101341.87
2018-01-24T09:43:14.310Z,101340.98
2018-01-24T09:45:41.971Z,101339.20
2018-01-24T09:48:09.603Z,101344.04
2018-01-24T09:50:37.277Z,101342.27
2018-01-24T09:53:04.928Z,101339.20
2018-01-24T09:55:32.655Z,101339.22
2018-01-24T09:58:04.349Z,101338.30
2018-01-24T10:00:32.834Z,101342.16
2018-01-24T10:03:00.467Z,101336.30
2018-01-24T10:05:28.211Z,101336.22
2018-01-24T10:07:55.856Z,101334.83
2018-01-24T10:10:25.622Z,101335.22
2018-01-24T10:12:53.265Z,101335.63
2018-01-24T10:15:21.102Z,101331.63
2018-01-24T10:17:48.734Z,101327.45
2018-01-24T10:20:16.392Z,101329.11
2018-01-24T10:22:46.286Z,101330.34
2018-01-24T10:25:13.954Z,101326.81
2018-01-24T10:27:43.654Z,101328.50
2018-01-24T10:30:12.214Z,101324.55
2018-01-24T10:32:39.847Z,101322.35
2018-01-24T10:35:07.612Z,101326.26
2018-01-24T10:37:35.256Z,101320.44
2018-01-24T10:40:05.239Z,101321.78
2018-01-24T10:42:33.617Z,101321.80
2018-01-24T10:45:05.302Z,101317.48
2018-01-24T10:47:32.933Z,101312.69
2018-01-24T10:50:00.567Z,101319.64
2018-01-24T10:52:30.727Z,101309.09
2018-01-24T10:54:58.682Z,101317.97
2018-01-24T10:57:26.547Z,101307.55
2018-01-24T10:59:54.388Z,101305.41
2018-01-24T11:02:26.177Z,101303.32
2018-01-24T11:04:54.578Z,101297.14
2018-01-24T11:07:22.242Z,101297.97
2018-01-24T11:09:51.920Z,101301.09
2018-01-24T11:12:20.334Z,101292.05
2018-01-24T11:14:47.992Z,101294.77
2018-01-24T11:17:15.628Z,101294.80
2018-01-24T11:19:48.362Z,101294.87
2018-01-24T11:22:16.786Z,101291.44
2018-01-24T11:24:44.423Z,101284.96
2018-01-24T11:27:12.090Z,101288.50
2018-01-24T11:29:39.734Z,101292.91
2018-01-24T11:32:07.491Z,101287.98
2018-01-24T11:34:35.162Z,101294.14
2018-01-24T11:37:02.860Z,101284.12
2018-01-24T11:39:32.796Z,101282.47
2018-01-24T11:42:01.247Z,101281.22
2018-01-24T11:44:28.885Z,101276.02
2018-01-24T11:47:00.041Z,101281.75
2018-01-24T11:49:28.059Z,101277.42
2018-01-24T11:51:55.806Z,101273.51
2018-01-24T11:54:25.728Z,101265.69
2018-01-24T11:56:53.672Z,101268.77
2018-01-24T11:59:21.557Z,101274.45
2018-01-24T12:01:51.276Z,101268.77
2018-01-24T12:04:18.900Z,101265.25
2018-01-24T12:06:46.669Z,101272.23
2018-01-24T12:09:14.299Z,101267.45
2018-01-24T12:11:44.984Z,101271.41
2018-01-24T12:14:12.618Z,101275.69
2018-01-24T12:16:41.882Z,101268.55
2018-01-24T12:19:09.518Z,101267.32
2018-01-24T12:21:37.184Z,101274.81
2018-01-24T12:24:04.904Z,101262.95
2018-01-24T12:26:32.558Z,101269.38
2018-01-24T12:29:00.200Z,101269.69
2018-01-24T12:31:27.861Z,101267.98
2018-01-24T12:33:59.567Z,101265.36
2018-01-24T12:36:27.235Z,101260.95
2018-01-24T12:38:58.907Z,101260.91
2018-01-24T12:41:28.724Z,101253.47
2018-01-24T12:44:00.463Z,101256.12
2018-01-24T12:46:30.145Z,101256.48
2018-01-24T12:48:57.778Z,101252.45
2018-01-24T12:51:25.456Z,101258.89
2018-01-24T12:53:57.139Z,101250.08
2018-01-24T12:56:24.762Z,101256.28
2018-01-24T12:58:52.446Z,101261.16
2018-01-24T13:01:20.273Z,101258.45
2018-01-24T13:03:47.917Z,101252.83
2018-01-24T13:06:17.526Z,101254.62
2018-01-24T13:08:46.098Z,101258.42
2018-01-24T13:11:13.734Z,101253.59
2018-01-24T13:13:43.472Z,101251.80
2018-01-24T13:16:11.112Z,101244.41
2018-01-24T13:18:39.570Z,101250.59
2018-01-24T13:21:07.253Z,101251.50
2018-01-24T13:23:34.891Z,101243.97
2018-01-24T13:26:02.538Z,101247.90
2018-01-24T13:28:32.234Z,101244.45
2018-01-24T13:30:59.866Z,101247.44
2018-01-24T13:33:29.573Z,101241.73
2018-01-24T13:35:59.269Z,101240.46
2018-01-24T13:38:26.908Z,101246.48
2018-01-24T13:40:54.615Z,101243.44
2018-01-24T13:43:23.235Z,101245.23
2018-01-24T13:45:50.862Z,101246.61
2018-01-24T13:48:22.607Z,101250.98
2018-01-24T13:50:50.247Z,101250.13
2018-01-24T13:53:19.982Z,101249.27
2018-01-24T13:55:48.479Z,101252.20
2018-01-24T13:58:16.106Z,101250.42
2018-01-24T14:00:43.802Z,101248.27
2018-01-24T14:03:13.523Z,101249.12
2018-01-24T14:05:45.151Z,101252.65
2018-01-24T14:08:17.652Z,101242.20
2018-01-24T14:10:47.081Z,101254.05
2018-01-24T14:13:14.770Z,101254.81
2018-01-24T14:15:42.451Z,101245.89
2018-01-24T14:18:10.096Z,101250.69
2018-01-24T14:20:46.687Z,101252.39
2018-01-24T14:23:16.524Z,101255.81
2018-01-24T14:25:44.353Z,101248.40
2018-01-24T14:28:17.156Z,101253.36
2018-01-24T14:30:44.845Z,101252.59
2018-01-24T14:33:12.481Z,101250.37
2018-01-24T14:35:41.026Z,101248.73
2018-01-24T14:38:09.490Z,101256.70
2018-01-24T14:40:42.703Z,101254.49
2018-01-24T14:43:10.336Z,101258.48
2018-01-24T14:45:38.074Z,101262.09
2018-01-24T14:48:05.973Z,101256.49
2018-01-24T14:50:33.627Z,101257.84
2018-01-24T14:53:05.342Z,101259.19
2018-01-24T14:55:32.966Z,101251.41
2018-01-24T14:58:00.594Z,101257.59
2018-01-24T15:00:30.274Z,101254.08
2018-01-24T15:02:58.245Z,101258.50
2018-01-24T15:05:25.864Z,101265.55
2018-01-24T15:07:54.050Z,101261.20
2018-01-24T15:10:28.607Z,101263.86
2018-01-24T15:12:56.908Z,101271.32
2018-01-24T15:15:28.193Z,101271.39
2018-01-24T15:17:55.882Z,101277.55
2018-01-24T15:20:24.166Z,101271.05
2018-01-24T15:22:56.044Z,101272.82
2018-01-24T15:25:23.708Z,101274.61
2018-01-24T15:27:53.265Z,101280.31
2018-01-24T15:30:21.395Z,101281.22
2018-01-24T15:32:49.030Z,101282.95
2018-01-24T15:35:19.780Z,101283.87
2018-01-24T15:37:47.503Z,101275.16
2018-01-24T15:40:15.247Z,101280.39
2018-01-24T15:42:42.918Z,101285.23
2018-01-24T15:45:10.913Z,101291.34
2018-01-24T15:47:40.748Z,101290.94
2018-01-24T15:50:09.665Z,101295.31
2018-01-24T15:52:37.412Z,101297.05
2018-01-24T15:55:05.034Z,101297.07
2018-01-24T15:57:32.663Z,101303.64
2018-01-24T16:00:00.412Z,101312.78
2018-01-24T16:02:28.146Z,101312.78
2018-01-24T16:04:55.877Z,101322.41
2018-01-24T16:07:23.637Z,101325.05
2018-01-24T16:09:51.262Z,101331.56
2018-01-24T16:12:18.933Z,101330.71
2018-01-24T16:14:46.916Z,101341.20
2018-01-24T16:17:14.814Z,101346.85
2018-01-24T16:19:42.594Z,101348.17
2018-01-24T16:22:10.644Z,101354.30
2018-01-24T16:24:38.401Z,101362.58
2018-01-24T16:27:06.301Z,101360.39
2018-01-24T16:29:37.238Z,101368.68
2018-01-24T16:32:10.268Z,101369.56
2018-01-24T16:34:37.994Z,101372.61
2018-01-24T16:37:05.954Z,101376.12
2018-01-24T16:39:34.869Z,101377.00
2018-01-24T16:42:02.983Z,101380.48
2018-01-24T16:44:31.253Z,101380.04
2018-01-24T16:47:00.517Z,101381.38
2018-01-24T16:49:28.521Z,101379.61
2018-01-24T16:51:56.470Z,101381.81
2018-01-24T16:54:25.372Z,101385.70
2018-01-24T16:56:55.550Z,101384.42
2018-01-24T16:59:24.900Z,101389.20
2018-01-24T17:01:52.683Z,101398.36
2018-01-24T17:04:27.759Z,101397.48
2018-01-24T17:06:55.817Z,101397.94
2018-01-24T17:09:27.928Z,101397.50
2018-01-24T17:11:56.704Z,101397.52
2018-01-24T17:14:25.413Z,101400.57
2018-01-24T17:16:53.100Z,101404.02
2018-01-24T17:19:20.876Z,101409.27
2018-01-24T17:21:48.716Z,101424.98
2018-01-24T17:24:17.397Z,101419.29
2018-01-24T17:26:51.464Z,101424.09
2018-01-24T17:29:19.519Z,101419.72
2018-01-24T17:31:49.442Z,101422.33
2018-01-24T17:34:17.407Z,101427.16
2018-01-24T17:36:45.424Z,101421.48
2018-01-24T17:39:13.515Z,101427.58
2018-01-24T17:41:43.570Z,101428.89
2018-01-24T17:44:11.398Z,101428.88
2018-01-24T17:46:39.148Z,101432.38
2018-01-24T17:49:06.979Z,101431.05
2018-01-24T17:51:35.093Z,101437.16
2018-01-24T17:54:03.210Z,101436.73
2018-01-24T17:56:31.075Z,101436.27
2018-01-24T17:58:58.885Z,101434.11
2018-01-24T18:01:26.705Z,101432.81
2018-01-24T18:03:54.978Z,101433.23
2018-01-24T18:06:22.976Z,101437.59
2018-01-24T18:08:50.827Z,101428.45
2018-01-24T18:11:18.767Z,101429.30
2018-01-24T18:13:48.683Z,101434.10
2018-01-24T18:16:16.874Z,101433.67
2018-01-24T18:18:44.823Z,101429.30
2018-01-24T18:21:13.831Z,101433.66
2018-01-24T18:23:42.678Z,101431.48
2018-01-24T18:26:10.520Z,101435.39
2018-01-24T18:28:40.656Z,101438.90
2018-01-24T18:31:09.302Z,101440.61
2018-01-24T18:33:38.005Z,101444.09
2018-01-24T18:36:10.345Z,101443.25
2018-01-24T18:38:38.313Z,101439.77
2018-01-24T18:41:06.848Z,101439.32
2018-01-24T18:43:35.799Z,101441.05
2018-01-24T18:46:03.571Z,101446.26
2018-01-24T18:48:31.438Z,101444.97
2018-01-24T18:50:59.467Z,101451.05
2018-01-24T18:53:27.469Z,101449.76
2018-01-24T18:55:55.550Z,101453.66
2018-01-24T18:58:25.470Z,101450.61
2018-01-24T19:00:56.636Z,101458.89
2018-01-24T19:03:25.466Z,101463.68
2018-01-24T19:05:54.492Z,101466.29
2018-01-24T19:08:30.337Z,101466.29
2018-01-24T19:10:58.591Z,101466.73
2018-01-24T19:13:26.528Z,101467.59
2018-01-24T19:15:55.473Z,101471.09
2018-01-24T19:18:23.237Z,101474.55
2018-01-24T19:20:51.348Z,101472.80
2018-01-24T19:23:21.555Z,101474.13
2018-01-24T19:25:49.988Z,101473.69
2018-01-24T19:28:19.690Z,101474.56
2018-01-24T19:30:48.434Z,101475.41
2018-01-24T19:33:16.582Z,101476.72
2018-01-24T19:35:44.961Z,101478.47
2018-01-24T19:38:15.060Z,101479.78
2018-01-24T19:40:43.084Z,101471.91
2018-01-24T19:43:15.018Z,101472.78
2018-01-24T19:45:43.703Z,101472.77
2018-01-24T19:48:15.771Z,101476.28
2018-01-24T19:50:43.710Z,101476.70
2018-01-24T19:53:12.379Z,101484.11
2018-01-24T19:55:40.377Z,101477.12
2018-01-24T19:58:11.122Z,101477.98
2018-01-24T20:00:39.028Z,101475.39
2018-01-24T20:03:07.113Z,101474.49
2018-01-24T20:05:35.206Z,101469.28
2018-01-24T20:08:03.144Z,101471.46
2018-01-24T20:10:33.341Z,101470.16
2018-01-24T20:13:01.094Z,101470.56
2018-01-24T20:15:28.868Z,101462.70
2018-01-24T20:17:58.030Z,101458.80
2018-01-24T20:20:26.100Z,101458.77
2018-01-24T20:22:53.994Z,101460.94
2018-01-24T20:25:24.844Z,101458.77
2018-01-24T20:27:53.513Z,101456.57
2018-01-24T20:30:21.370Z,101456.14
2018-01-24T20:32:53.669Z,101457.89
2018-01-24T20:35:21.715Z,101455.72
2018-01-24T20:37:49.682Z,101455.69
2018-01-24T20:40:17.747Z,101456.56
2018-01-24T20:42:46.859Z,101464.40
2018-01-24T20:45:16.353Z,101455.27
2018-01-24T20:47:44.619Z,101454.37
2018-01-24T20:50:14.814Z,101458.30
2018-01-24T20:52:43.132Z,101454.82
2018-01-24T20:55:10.964Z,101458.28
2018-01-24T20:57:41.733Z,101458.28
2018-01-24T21:00:12.680Z,101460.02
2018-01-24T21:02:40.412Z,101458.72
2018-01-24T21:05:10.925Z,101457.86
2018-01-24T21:07:42.010Z,101457.83
2018-01-24T21:10:11.082Z,101457.41
2018-01-24T21:12:39.687Z,101459.12
2018-01-24T21:15:07.638Z,101458.70
2018-01-24T21:17:36.227Z,101461.73
2018-01-24T21:20:06.362Z,101456.09
2018-01-24T21:22:34.285Z,101448.69
2018-01-24T21:25:02.215Z,101439.52
2018-01-24T21:27:31.340Z,101442.57
2018-01-24T21:30:11.167Z,101442.57
2018-01-24T21:32:53.139Z,101433.87
2018-01-24T21:35:35.065Z,101434.31
2018-01-24T21:38:02.902Z,101434.30
2018-01-24T21:40:32.889Z,101430.81
2018-01-24T21:43:00.788Z,101422.55
2018-01-24T21:45:32.850Z,101425.57
2018-01-24T21:48:01.387Z,101418.61
2018-01-24T21:50:31.484Z,101419.91
2018-01-24T21:52:59.327Z,101424.71
2018-01-24T21:55:27.182Z,101421.67
2018-01-24T21:57:57.819Z,101417.73
2018-01-24T22:00:27.913Z,101418.59
2018-01-24T22:02:57.954Z,101417.73
2018-01-24T22:05:25.768Z,101419.89
2018-01-24T22:07:55.981Z,101411.62
2018-01-24T22:10:26.155Z,101416.84
2018-01-24T22:12:54.117Z,101407.71
2018-01-24T22:15:25.179Z,101412.50
2018-01-24T22:17:53.021Z,101408.56
2018-01-24T22:20:20.940Z,101409.44
2018-01-24T22:22:50.816Z,101410.31
2018-01-24T22:25:18.766Z,101409.44
2018-01-24T22:27:46.700Z,101413.36
2018-01-24T22:30:14.427Z,101415.50
2018-01-24T22:32:42.395Z,101418.55
2018-01-24T22:35:16.440Z,101413.33
2018-01-24T22:37:44.466Z,101409.86
2018-01-24T22:40:13.165Z,101412.05
2018-01-24T22:42:40.928Z,101411.58
2018-01-24T22:45:08.940Z,101422.90
2018-01-24T22:47:36.808Z,101420.26
2018-01-24T22:50:04.623Z,101415.05
2018-01-24T22:52:32.738Z,101420.70
2018-01-24T22:55:03.556Z,101424.19
2018-01-24T22:57:31.513Z,101427.64
2018-01-24T22:59:59.578Z,101430.27
2018-01-24T23:02:27.401Z,101435.02
2018-01-24T23:04:55.403Z,101443.72
2018-01-24T23:07:23.356Z,101438.05
2018-01-24T23:09:51.295Z,101436.30
2018-01-24T23:12:19.189Z,101429.76
2018-01-24T23:14:47.127Z,101426.72
2018-01-24T23:17:15.150Z,101420.20
2018-01-24T23:19:43.069Z,101413.67
2018-01-24T23:22:11.176Z,101409.33
2018-01-24T23:24:43.354Z,101410.20
2018-01-24T23:27:11.306Z,101407.56
2018-01-24T23:29:39.247Z,101401.48
2018-01-24T23:32:07.096Z,101391.92
2018-01-24T23:34:35.087Z,101391.89
2018-01-24T23:37:03.108Z,101387.55
2018-01-24T23:39:35.469Z,101399.72
2018-01-24T23:42:05.391Z,101397.53
2018-01-24T23:44:33.215Z,101391.45
2018-01-24T23:47:01.904Z,101389.68
2018-01-24T23:49:29.948Z,101393.59
2018-01-24T23:51:57.986Z,101385.34
2018-01-24T23:54:25.745Z,101372.73
2018-01-24T23:56:55.657Z,101369.69
2018-01-24T23:59:23.728Z,101371.84
